createdAt,value
2023-01-18T00:01:46.962Z,95411.78
2023-01-18T00:04:20.439Z,95427.50
2023-01-18T00:06:52.413Z,95420.50
2023-01-18T00:09:25.133Z,95414.09
2023-01-18T00:11:57.632Z,95420.00
2023-01-18T00:14:30.883Z,95433.69
2023-01-18T00:17:03.167Z,95428.50
2023-01-18T00:19:35.686Z,95434.44
2023-01-18T00:22:08.373Z,95422.09
2023-01-18T00:24:40.270Z,95434.44
2023-01-18T00:27:13.468Z,95431.16
2023-01-18T00:29:45.911Z,95440.28
2023-01-18T00:32:18.721Z,95438.34
2023-01-18T00:34:50.663Z,95442.22
2023-01-18T00:37:27.000Z,95433.16
2023-01-18T00:39:58.853Z,95438.34
2023-01-18T00:42:50.735Z,95439.69
2023-01-18T00:45:23.016Z,95439.03
2023-01-18T00:47:55.290Z,95431.88
2023-01-18T00:50:27.211Z,95446.84
2023-01-18T00:53:00.640Z,95446.84
2023-01-18T00:55:33.020Z,95451.41
2023-01-18T00:58:05.898Z,95453.38
2023-01-18T01:00:39.441Z,95454.66
2023-01-18T01:03:13.502Z,95454.00
2023-01-18T01:06:04.563Z,95472.22
2023-01-18T01:08:36.514Z,95474.84
2023-01-18T01:11:12.717Z,95480.72
2023-01-18T01:14:02.894Z,95474.88
2023-01-18T01:16:53.900Z,95470.34
2023-01-18T01:19:44.269Z,95474.25
2023-01-18T01:22:35.568Z,95481.34
2023-01-18T01:25:26.860Z,95490.50
2023-01-18T01:27:58.792Z,95512.00
2023-01-18T01:30:31.612Z,95504.31
2023-01-18T01:33:03.574Z,95505.69
2023-01-18T01:35:36.388Z,95514.75
2023-01-18T01:38:09.096Z,95521.97
2023-01-18T01:40:41.465Z,95513.50
2023-01-18T01:43:13.781Z,95513.56
2023-01-18T01:45:47.157Z,95524.66
2023-01-18T01:48:20.112Z,95529.88
2023-01-18T01:50:52.017Z,95528.66
2023-01-18T01:53:25.103Z,95533.81
2023-01-18T01:55:56.962Z,95533.84
2023-01-18T01:58:30.520Z,95541.00
2023-01-18T02:01:02.692Z,95545.66
2023-01-18T02:03:39.918Z,95546.25
2023-01-18T02:06:31.137Z,95550.19
2023-01-18T02:09:11.927Z,95554.16
2023-01-18T02:11:44.130Z,95555.44
2023-01-18T02:14:17.336Z,95559.97
2023-01-18T02:16:54.885Z,95563.94
2023-01-18T02:20:24.461Z,95562.66
2023-01-18T02:23:46.334Z,95570.44
2023-01-18T02:26:40.910Z,95575.00
2023-01-18T02:29:21.727Z,95579.50
2023-01-18T02:32:41.520Z,95580.22
2023-01-18T02:35:48.873Z,95580.19
2023-01-18T02:38:54.940Z,95579.53
2023-01-18T02:42:07.311Z,95585.41
2023-01-18T02:45:03.461Z,95582.78
2023-01-18T02:47:37.524Z,95595.78
2023-01-18T02:50:10.650Z,95595.78
2023-01-18T02:52:54.776Z,95599.00
2023-01-18T02:55:42.310Z,95602.88
2023-01-18T02:58:47.125Z,95611.34
2023-01-18T03:01:32.518Z,95607.44
2023-01-18T03:04:29.589Z,95617.81
2023-01-18T03:07:12.888Z,95621.72
2023-01-18T03:09:46.974Z,95630.78
2023-01-18T03:12:46.433Z,95634.00
2023-01-18T03:16:01.203Z,95637.28
2023-01-18T03:19:36.521Z,95638.56
2023-01-18T03:22:10.686Z,95641.16
2023-01-18T03:24:45.721Z,95643.09
2023-01-18T03:27:36.789Z,95644.41
2023-01-18T03:30:28.483Z,95647.00
2023-01-18T03:33:20.185Z,95648.94
2023-01-18T03:35:54.527Z,95664.50
2023-01-18T03:38:27.977Z,95665.19
2023-01-18T03:41:01.938Z,95660.00
2023-01-18T03:43:38.168Z,95665.19
2023-01-18T03:46:10.579Z,95665.81
2023-01-18T03:48:43.226Z,95674.25
2023-01-18T03:51:34.428Z,95680.75
2023-01-18T03:54:37.572Z,95692.41
2023-01-18T03:57:30.643Z,95692.41
2023-01-18T04:00:06.967Z,95700.19
2023-01-18T04:03:01.649Z,95692.41
2023-01-18T04:05:35.388Z,95702.13
2023-01-18T04:08:08.001Z,95712.50
2023-01-18T04:10:41.814Z,95708.63
2023-01-18T04:13:13.691Z,95715.09
2023-01-18T04:15:47.000Z,95717.69
2023-01-18T04:18:19.707Z,95724.16
2023-01-18T04:20:56.760Z,95732.59
2023-01-18T04:23:28.688Z,95728.69
2023-01-18T04:26:01.000Z,95738.44
2023-01-18T04:28:34.468Z,95739.75
2023-01-18T04:31:08.105Z,95743.63
2023-01-18T04:33:40.043Z,95743.63
2023-01-18T04:36:12.747Z,95746.22
2023-01-18T04:38:45.069Z,95743.63
2023-01-18T04:41:17.052Z,95745.56
2023-01-18T04:43:50.183Z,95755.31
2023-01-18T04:46:22.177Z,95761.13
2023-01-18T04:48:55.002Z,95761.13
2023-01-18T04:51:27.366Z,95754.00
2023-01-18T04:54:00.663Z,95760.47
2023-01-18T04:56:32.960Z,95769.56
2023-01-18T04:59:05.384Z,95774.75
2023-01-18T05:01:37.761Z,95777.34
2023-01-18T05:04:09.881Z,95779.25
2023-01-18T05:06:42.634Z,95778.63
2023-01-18T05:09:15.302Z,95783.81
2023-01-18T05:11:47.643Z,95791.59
2023-01-18T05:14:19.958Z,95800.03
2023-01-18T05:16:52.712Z,95792.88
2023-01-18T05:19:30.957Z,95809.75
2023-01-18T05:22:02.848Z,95803.25
2023-01-18T05:24:35.610Z,95818.16
2023-01-18T05:27:07.536Z,95819.78
2023-01-18T05:29:40.403Z,95822.13
2023-01-18T05:32:12.683Z,95837.06
2023-01-18T05:34:46.046Z,95833.09
2023-01-18T05:37:17.939Z,95833.75
2023-01-18T05:39:50.641Z,95841.56
2023-01-18T05:42:23.323Z,95850.63
2023-01-18T05:44:55.234Z,95847.34
2023-01-18T05:47:28.180Z,95859.69
2023-01-18T05:50:01.066Z,95861.63
2023-01-18T05:52:34.865Z,95868.75
2023-01-18T05:55:08.244Z,95870.72
2023-01-18T05:57:40.612Z,95875.88
2023-01-18T06:00:13.056Z,95878.50
2023-01-18T06:02:45.798Z,95887.56
2023-01-18T06:05:17.669Z,95892.13
2023-01-18T06:07:50.712Z,95900.53
2023-01-18T06:10:22.574Z,95903.78
2023-01-18T06:12:55.316Z,95915.44
2023-01-18T06:15:27.693Z,95920.00
2023-01-18T06:18:00.528Z,95918.69
2023-01-18T06:20:32.838Z,95924.53
2023-01-18T06:23:05.740Z,95931.00
2023-01-18T06:25:37.858Z,95935.53
2023-01-18T06:28:10.639Z,95939.41
2023-01-18T06:30:42.849Z,95946.59
2023-01-18T06:33:15.955Z,95946.50
2023-01-18T06:35:48.363Z,95949.09
2023-01-18T06:38:20.770Z,95958.19
2023-01-18T06:40:56.017Z,95960.78
2023-01-18T06:43:28.023Z,95969.28
2023-01-18T06:46:01.111Z,95967.31
2023-01-18T06:48:33.346Z,95977.00
2023-01-18T06:51:06.304Z,95980.28
2023-01-18T06:53:39.122Z,95989.34
2023-01-18T06:56:13.367Z,95993.25
2023-01-18T06:58:45.776Z,96001.03
2023-01-18T07:01:17.817Z,96010.75
2023-01-18T07:03:50.720Z,96015.94
2023-01-18T07:06:24.115Z,96019.81
2023-01-18T07:08:56.412Z,96019.91
2023-01-18T07:11:29.553Z,96027.03
2023-01-18T07:14:01.438Z,96025.03
2023-01-18T07:16:34.657Z,96029.53
2023-01-18T07:19:06.741Z,96032.16
2023-01-18T07:21:40.070Z,96037.31
2023-01-18T07:24:12.024Z,96040.53
2023-01-18T07:26:44.802Z,96047.06
2023-01-18T07:29:17.271Z,96053.56
2023-01-18T07:31:49.613Z,96066.53
2023-01-18T07:34:23.382Z,96071.00
2023-01-18T07:36:57.054Z,96082.03
2023-01-18T07:39:28.992Z,96085.97
2023-01-18T07:42:01.713Z,96086.56
2023-01-18T07:44:34.074Z,96093.72
2023-01-18T07:47:08.308Z,96103.50
2023-01-18T07:49:43.680Z,96102.81
2023-01-18T07:52:16.403Z,96106.69
2023-01-18T07:54:48.274Z,96107.38
2023-01-18T07:57:21.612Z,96116.50
2023-01-18T07:59:53.940Z,96117.91
2023-01-18T08:02:26.415Z,96120.22
2023-01-18T08:04:59.263Z,96121.94
2023-01-18T08:07:34.285Z,96136.03
2023-01-18T08:10:07.607Z,96143.16
2023-01-18T08:12:39.916Z,96153.47
2023-01-18T08:15:12.590Z,96160.19
2023-01-18T08:17:44.905Z,96169.06
2023-01-18T08:20:17.811Z,96167.06
2023-01-18T08:22:57.291Z,96177.41
2023-01-18T08:25:33.854Z,96177.50
2023-01-18T08:28:06.681Z,96179.41
2023-01-18T08:30:43.726Z,96185.97
2023-01-18T08:33:16.347Z,96191.06
2023-01-18T08:35:48.478Z,96194.31
2023-01-18T08:38:22.295Z,96198.22
2023-01-18T08:40:54.435Z,96205.44
2023-01-18T08:43:27.191Z,96202.81
2023-01-18T08:45:59.738Z,96211.28
2023-01-18T08:48:32.365Z,96209.28
2023-01-18T08:51:04.726Z,96219.78
2023-01-18T08:53:37.770Z,96224.28
2023-01-18T08:56:09.891Z,96221.75
2023-01-18T08:58:43.579Z,96231.50
2023-01-18T09:01:16.140Z,96236.03
2023-01-18T09:03:51.106Z,96230.88
2023-01-18T09:06:23.797Z,96239.22
2023-01-18T09:08:56.541Z,96250.94
2023-01-18T09:11:29.286Z,96251.03
2023-01-18T09:14:02.447Z,96248.50
2023-01-18T09:16:34.844Z,96262.84
2023-01-18T09:19:07.590Z,96260.19
2023-01-18T09:21:40.686Z,96268.63
2023-01-18T09:24:13.632Z,96275.19
2023-01-18T09:26:47.688Z,96277.81
2023-01-18T09:29:20.742Z,96276.56
2023-01-18T09:31:54.228Z,96299.28
2023-01-18T09:34:27.065Z,96298.50
2023-01-18T09:37:02.615Z,96306.97
2023-01-18T09:39:57.005Z,96303.03
2023-01-18T09:42:38.541Z,96310.09
2023-01-18T09:45:28.487Z,96307.75
2023-01-18T09:48:40.144Z,96314.88
2023-01-18T09:51:47.027Z,96326.09
2023-01-18T09:54:51.386Z,96328.72
2023-01-18T09:57:34.366Z,96335.22
2023-01-18T10:00:37.482Z,96337.97
2023-01-18T10:03:47.450Z,96337.97
2023-01-18T10:06:35.386Z,96355.44
2023-01-18T10:09:16.113Z,96364.34
2023-01-18T10:12:01.830Z,96356.66
2023-01-18T10:14:46.764Z,96362.53
2023-01-18T10:17:23.225Z,96368.97
2023-01-18T10:19:55.932Z,96364.34
2023-01-18T10:22:29.941Z,96379.38
2023-01-18T10:25:44.632Z,96376.25
2023-01-18T10:28:26.923Z,96382.88
2023-01-18T10:31:15.810Z,96383.59
2023-01-18T10:33:55.553Z,96378.50
2023-01-18T10:36:38.820Z,96388.91
2023-01-18T10:39:37.087Z,96390.59
2023-01-18T10:42:24.084Z,96392.66
2023-01-18T10:44:55.992Z,96393.94
2023-01-18T10:47:29.119Z,96401.22
2023-01-18T10:50:01.030Z,96397.44
2023-01-18T10:52:36.740Z,96398.72
2023-01-18T10:55:17.567Z,96399.41
2023-01-18T10:57:53.871Z,96408.94
2023-01-18T11:00:34.136Z,96407.84
2023-01-18T11:03:28.662Z,96404.66
2023-01-18T11:06:06.924Z,96403.25
2023-01-18T11:08:39.216Z,96417.00
2023-01-18T11:11:52.549Z,96428.06
2023-01-18T11:14:31.745Z,96416.94
2023-01-18T11:17:11.362Z,96420.88
2023-01-18T11:19:44.199Z,96419.53
2023-01-18T11:22:17.557Z,96415.63
2023-01-18T11:24:53.513Z,96420.91
2023-01-18T11:27:25.869Z,96426.78
2023-01-18T11:30:21.771Z,96439.81
2023-01-18T11:32:54.664Z,96435.88
2023-01-18T11:35:37.755Z,96442.97
2023-01-18T11:38:18.710Z,96444.94
2023-01-18T11:41:18.523Z,96443.63
2023-01-18T11:44:23.669Z,96457.25
2023-01-18T11:47:04.263Z,96452.75
2023-01-18T11:49:47.633Z,96445.56
2023-01-18T11:52:42.788Z,96451.47
2023-01-18T11:55:39.970Z,96448.19
2023-01-18T11:58:28.794Z,96451.50
2023-01-18T12:01:45.955Z,96457.88
2023-01-18T12:04:33.242Z,96459.81
2023-01-18T12:07:33.132Z,96462.28
2023-01-18T12:10:14.357Z,96472.03
2023-01-18T12:13:22.892Z,96465.06
2023-01-18T12:16:10.689Z,96462.53
2023-01-18T12:19:09.895Z,96468.34
2023-01-18T12:22:07.507Z,96472.19
2023-01-18T12:25:08.477Z,96472.19
2023-01-18T12:28:04.251Z,96479.41
2023-01-18T12:30:55.414Z,96492.38
2023-01-18T12:33:58.049Z,96503.25
2023-01-18T12:36:49.176Z,96494.41
2023-01-18T12:39:46.328Z,96498.22
2023-01-18T12:42:33.243Z,96501.50
2023-01-18T12:46:03.758Z,96498.81
2023-01-18T12:48:56.942Z,96505.38
2023-01-18T12:51:35.195Z,96513.75
2023-01-18T12:54:34.394Z,96508.59
2023-01-18T12:57:08.241Z,96511.06
2023-01-18T13:00:09.572Z,96518.19
2023-01-18T13:02:45.767Z,96519.59
2023-01-18T13:05:35.652Z,96513.16
2023-01-18T13:08:20.522Z,96515.81
2023-01-18T13:11:00.999Z,96520.94
2023-01-18T13:13:35.062Z,96528.16
2023-01-18T13:16:34.662Z,96537.84
2023-01-18T13:19:21.608Z,96538.19
2023-01-18T13:22:14.551Z,96542.44
2023-01-18T13:25:19.596Z,96541.78
2023-01-18T13:28:10.446Z,96552.97
2023-01-18T13:31:01.556Z,96542.53
2023-01-18T13:33:39.220Z,96549.72
2023-01-18T13:36:19.793Z,96558.81
2023-01-18T13:39:01.141Z,96552.25
2023-01-18T13:41:34.178Z,96560.13
2023-01-18T13:44:32.378Z,96567.88
2023-01-18T13:47:43.065Z,96567.19
2023-01-18T13:50:39.880Z,96580.28
2023-01-18T13:53:15.264Z,96575.69
2023-01-18T13:55:59.429Z,96587.63
2023-01-18T13:58:34.653Z,96599.28
2023-01-18T14:01:21.277Z,96596.56
2023-01-18T14:03:54.325Z,96598.66
2023-01-18T14:06:34.623Z,96604.50
2023-01-18T14:09:15.052Z,96616.69
2023-01-18T14:11:59.180Z,96611.28
2023-01-18T14:14:36.223Z,96621.84
2023-01-18T14:17:32.011Z,96629.69
2023-01-18T14:20:34.215Z,96632.63
2023-01-18T14:23:21.040Z,96641.00
2023-01-18T14:26:09.434Z,96650.13
2023-01-18T14:28:55.221Z,96650.13
2023-01-18T14:31:51.863Z,96658.59
2023-01-18T14:34:32.473Z,96668.28
2023-01-18T14:37:28.972Z,96674.78
2023-01-18T14:40:26.404Z,96674.06
2023-01-18T14:43:14.856Z,96674.78
2023-01-18T14:46:16.099Z,96681.88
2023-01-18T14:48:59.503Z,96687.03
2023-01-18T14:51:32.614Z,96687.56
2023-01-18T14:54:12.737Z,96691.56
2023-01-18T14:56:46.080Z,96694.03
2023-01-18T14:59:27.637Z,96701.31
2023-01-18T15:02:20.123Z,96702.53
2023-01-18T15:05:13.103Z,96712.19
2023-01-18T15:07:56.076Z,96716.97
2023-01-18T15:10:28.638Z,96723.47
2023-01-18T15:13:08.075Z,96720.72
2023-01-18T15:16:02.147Z,96726.47
2023-01-18T15:18:34.236Z,96722.63
2023-01-18T15:21:22.186Z,96736.22
2023-01-18T15:24:09.090Z,96737.75
2023-01-18T15:26:46.286Z,96747.97
2023-01-18T15:29:20.659Z,96745.41
2023-01-18T15:32:34.719Z,96755.09
2023-01-18T15:35:13.537Z,96761.50
2023-01-18T15:37:47.258Z,96764.22
2023-01-18T15:40:20.848Z,96760.28
2023-01-18T15:43:25.624Z,96761.06
2023-01-18T15:45:59.416Z,96761.59
2023-01-18T15:48:48.349Z,96766.06
2023-01-18T15:51:46.206Z,96764.97
2023-01-18T15:54:25.677Z,96771.41
2023-01-18T15:57:14.645Z,96776.75
2023-01-18T15:59:47.585Z,96787.13
2023-01-18T16:05:23.916Z,96789.72
2023-01-18T16:08:21.330Z,96790.94
2023-01-18T16:10:57.283Z,96803.16
2023-01-18T16:13:42.682Z,96807.06
2023-01-18T16:16:42.191Z,96807.44
2023-01-18T16:19:23.914Z,96815.25
2023-01-18T16:22:06.597Z,96821.00
2023-01-18T16:24:46.888Z,96828.66
2023-01-18T16:27:54.061Z,96829.34
2023-01-18T16:30:40.153Z,96831.94
2023-01-18T16:33:18.275Z,96834.56
2023-01-18T16:35:51.122Z,96836.53
2023-01-18T16:38:23.776Z,96838.53
2023-01-18T16:40:59.409Z,96850.81
2023-01-18T16:43:51.024Z,96860.56
2023-01-18T16:46:23.883Z,96856.13
2023-01-18T16:48:55.816Z,96864.66
2023-01-18T16:51:50.700Z,96871.81
2023-01-18T16:54:25.248Z,96871.69
2023-01-18T16:56:57.455Z,96877.53
2023-01-18T16:59:31.365Z,96885.44
2023-01-18T17:02:03.498Z,96889.59
2023-01-18T17:04:36.301Z,96889.56
2023-01-18T17:07:09.911Z,96894.53
2023-01-18T17:09:48.886Z,96909.59
2023-01-18T17:12:21.343Z,96901.31
2023-01-18T17:14:54.630Z,96911.16
2023-01-18T17:17:26.961Z,96915.53
2023-01-18T17:19:59.695Z,96922.88
2023-01-18T17:22:32.416Z,96929.34
2023-01-18T17:25:05.262Z,96934.50
2023-01-18T17:27:37.424Z,96946.25
2023-01-18T17:30:13.334Z,96952.03
2023-01-18T17:33:05.563Z,96959.25
2023-01-18T17:35:37.907Z,96961.00
2023-01-18T17:38:17.241Z,96958.94
2023-01-18T17:43:49.337Z,96961.69
2023-01-18T17:46:21.718Z,96969.25
2023-01-18T17:51:48.382Z,96974.56
2023-01-18T17:54:39.474Z,96982.16
2023-01-18T17:57:11.384Z,96988.13
2023-01-18T17:59:44.594Z,97004.13
2023-01-18T18:02:17.060Z,97003.16
2023-01-18T18:04:50.367Z,97006.38
2023-01-18T18:07:23.141Z,97017.28
2023-01-18T18:10:00.030Z,97008.22
2023-01-18T18:12:35.549Z,97020.41
2023-01-18T18:15:07.905Z,97028.28
2023-01-18T18:17:40.891Z,97026.84
2023-01-18T18:20:14.570Z,97035.34
2023-01-18T18:22:46.919Z,97046.84
2023-01-18T18:25:18.912Z,97042.19
2023-01-18T18:27:51.902Z,97050.03
2023-01-18T18:30:23.802Z,97055.34
2023-01-18T18:32:58.155Z,97058.00
2023-01-18T18:35:30.656Z,97068.22
2023-01-18T18:38:03.415Z,97071.34
2023-01-18T18:40:38.890Z,97080.13
2023-01-18T18:43:11.750Z,97080.91
2023-01-18T18:45:47.969Z,97086.66
2023-01-18T18:48:20.172Z,97088.22
2023-01-18T18:50:53.993Z,97096.69
2023-01-18T18:53:37.445Z,97099.78
2023-01-18T18:56:12.486Z,97112.78
2023-01-18T18:58:44.828Z,97108.91
2023-01-18T19:01:27.140Z,97105.91
2023-01-18T19:04:00.085Z,97116.97
2023-01-18T19:06:33.026Z,97114.59
2023-01-18T19:09:06.118Z,97119.88
2023-01-18T19:11:41.627Z,97128.91
2023-01-18T19:14:19.913Z,97128.16
2023-01-18T19:16:53.102Z,97138.97
2023-01-18T19:19:27.038Z,97143.63
2023-01-18T19:21:58.916Z,97143.06
2023-01-18T19:24:35.288Z,97143.75
2023-01-18T19:27:07.168Z,97148.81
2023-01-18T19:29:40.031Z,97155.63
2023-01-18T19:32:12.323Z,97156.06
2023-01-18T19:34:44.625Z,97150.81
2023-01-18T19:37:17.324Z,97163.88
2023-01-18T19:39:50.042Z,97167.81
2023-01-18T19:42:23.167Z,97161.63
2023-01-18T19:44:59.254Z,97159.66
2023-01-18T19:47:32.484Z,97173.00
2023-01-18T19:50:23.249Z,97174.53
2023-01-18T19:52:56.760Z,97179.28
2023-01-18T19:55:30.358Z,97181.88
2023-01-18T19:58:03.200Z,97177.69
2023-01-18T20:00:35.506Z,97175.75
2023-01-18T20:03:13.873Z,97185.34
2023-01-18T20:05:45.838Z,97179.91
2023-01-18T20:11:30.589Z,97182.16
2023-01-18T20:14:02.873Z,97194.03
2023-01-18T20:16:35.606Z,97191.13
2023-01-18T20:19:11.854Z,97197.53
2023-01-18T20:21:44.582Z,97194.47
2023-01-18T20:24:16.786Z,97196.38
2023-01-18T20:26:50.338Z,97198.00
2023-01-18T20:29:24.263Z,97203.91
2023-01-18T20:32:08.489Z,97208.44
2023-01-18T20:34:47.705Z,97211.75
2023-01-18T20:37:19.719Z,97215.00
2023-01-18T20:39:52.891Z,97221.88
2023-01-18T20:42:25.254Z,97219.88
2023-01-18T20:45:00.439Z,97221.69
2023-01-18T20:47:33.742Z,97221.09
2023-01-18T20:50:06.396Z,97222.41
2023-01-18T20:52:39.282Z,97230.78
2023-01-18T20:55:15.226Z,97237.66
2023-01-18T20:57:54.484Z,97239.22
2023-01-18T21:00:27.240Z,97235.31
2023-01-18T21:03:00.073Z,97242.59
2023-01-18T21:05:33.118Z,97238.69
2023-01-18T21:08:05.568Z,97253.88
2023-01-18T21:10:42.704Z,97256.94
2023-01-18T21:13:14.736Z,97260.97
2023-01-18T21:15:55.456Z,97266.03
2023-01-18T21:18:28.321Z,97259.34
2023-01-18T21:21:00.887Z,97267.19
2023-01-18T21:23:39.719Z,97275.97
2023-01-18T21:26:12.787Z,97264.31
2023-01-18T21:28:48.125Z,97275.69
2023-01-18T21:31:21.553Z,97273.13
2023-01-18T21:33:55.316Z,97278.94
2023-01-18T21:36:28.018Z,97283.16
2023-01-18T21:39:00.127Z,97282.78
2023-01-18T21:41:51.364Z,97282.97
2023-01-18T21:44:41.594Z,97278.56
2023-01-18T21:47:17.819Z,97282.63
2023-01-18T21:50:17.494Z,97280.16
2023-01-18T21:53:09.474Z,97279.38
2023-01-18T21:55:41.754Z,97291.72
2023-01-18T21:58:33.030Z,97293.16
2023-01-18T22:01:39.433Z,97301.03
2023-01-18T22:04:32.999Z,97299.94
2023-01-18T22:07:33.555Z,97307.97
2023-01-18T22:10:07.325Z,97305.97
2023-01-18T22:12:39.873Z,97308.19
2023-01-18T22:15:15.942Z,97317.16
2023-01-18T22:17:49.141Z,97325.31
2023-01-18T22:20:21.870Z,97323.19
2023-01-18T22:22:54.329Z,97325.59
2023-01-18T22:25:27.048Z,97332.22
2023-01-18T22:27:59.245Z,97327.97
2023-01-18T22:30:32.554Z,97329.06
2023-01-18T22:33:04.945Z,97329.66
2023-01-18T22:35:39.787Z,97335.56
2023-01-18T22:38:12.767Z,97331.44
2023-01-18T22:40:45.075Z,97336.16
2023-01-18T22:43:40.496Z,97338.59
2023-01-18T22:46:16.409Z,97333.56
2023-01-18T22:48:48.729Z,97337.88
2023-01-18T22:51:24.163Z,97345.50
2023-01-18T22:53:56.403Z,97349.16
2023-01-18T22:56:28.799Z,97350.00
2023-01-18T22:59:01.597Z,97350.75
2023-01-18T23:01:33.948Z,97352.22
2023-01-18T23:04:06.700Z,97355.00
2023-01-18T23:07:01.288Z,97353.69
2023-01-18T23:09:33.196Z,97346.44
2023-01-18T23:12:06.392Z,97344.97
2023-01-18T23:14:56.604Z,97354.88
2023-01-18T23:17:41.163Z,97357.53
2023-01-18T23:20:14.909Z,97353.47
2023-01-18T23:22:47.690Z,97358.81
2023-01-18T23:25:19.559Z,97368.13
2023-01-18T23:27:52.408Z,97366.19
2023-01-18T23:30:24.324Z,97359.63
2023-01-18T23:32:57.610Z,97367.59
2023-01-18T23:35:29.548Z,97361.56
2023-01-18T23:38:02.934Z,97368.25
2023-01-18T23:40:54.941Z,97366.50
2023-01-18T23:43:45.166Z,97368.41
2023-01-18T23:46:36.495Z,97374.75
2023-01-18T23:49:29.769Z,97370.34
2023-01-18T23:52:20.343Z,97367.59
2023-01-18T23:54:53.064Z,97368.19
2023-01-18T23:57:24.968Z,97379.59
2023-01-18T23:59:57.682Z,97373.88
